Terminal Aerodrome Forecast
Issued by NWS Pittsburgh, PA

Current Version | Previous Version | Graphics & Text | Print | Product List | Glossary On
Versions: 1 2 3 4 5 6 7 8 9 10 11 12 13 14 15 16 17 18 19 20 21 22 23 24 25 26 27
662
FTUS41 KPBZ 071120
TAFPIT
TAF
KPIT 071120Z 0712/0818 VRB03KT P6SM SKC
     FM071800 19007G15KT P6SM BKN250
     FM080200 VRB04KT P6SM BKN120
     FM081200 14006KT 6SM -SHRASN OVC025=

USA.gov is the U.S. government's official web portal to all federal, state and local government web resources and services.